ブリッジタウン の空港の天気 - METARとTAF

グラントレー・アダムス国際空港 ( TBPB / BGI ) - バルバドス ブリッジタウン
飛行場実況気象(Metar)
観測時間03/06 10:00 AST (03/06 14:00 UTC)
風向・風速東 9m/s
視程10km以上
天気現象
全天の8割程度の雲 雲底高度 550m
気温29℃
湿度58%
気圧1016hPa
METARTBPB 061400Z 10018KT 9999 BKN018 29/20 Q1016 NOSIG
過去の天気等 Google飛行場航空写真 Wunderground天気予報

過去48時間のMETAR

飛行場予報(TAF)
発表時間: 3/06 07:00 AST (3/06 11:00 UTC)
予報対象時間: 6日8時 AST ~ 7日8時 AST
風向・風速東 7m/s
視程10km以上
少しの雲 雲底高度 610m
TAF TBPB 061100Z 0612/0712 09014KT 9999 FEW020